createdAt,value
2019-05-17T00:00:12.990Z,8.81
2019-05-17T00:02:39.727Z,8.77
2019-05-17T00:05:06.895Z,8.84
2019-05-17T00:07:33.178Z,8.82
2019-05-17T00:09:59.894Z,8.82
2019-05-17T00:12:27.094Z,8.89
2019-05-17T00:14:53.365Z,8.91
2019-05-17T00:17:20.100Z,9.02
2019-05-17T00:19:46.850Z,9.09
2019-05-17T00:22:13.589Z,9.19
2019-05-17T00:24:40.313Z,9.38
2019-05-17T00:27:07.042Z,9.34
2019-05-17T00:29:34.170Z,9.31
2019-05-17T00:32:00.895Z,9.38
2019-05-17T00:34:27.633Z,9.33
2019-05-17T00:36:54.355Z,9.35
2019-05-17T00:39:21.090Z,9.38
2019-05-17T00:41:47.827Z,9.47
2019-05-17T00:44:16.595Z,9.49
2019-05-17T00:46:41.318Z,9.56
2019-05-17T00:49:08.062Z,9.43
2019-05-17T00:51:36.887Z,9.36
2019-05-17T00:54:01.652Z,9.49
2019-05-17T00:56:28.377Z,9.64
2019-05-17T00:58:56.828Z,9.51
2019-05-17T01:01:21.869Z,9.61
2019-05-17T01:03:48.630Z,9.38
2019-05-17T01:06:16.971Z,9.22
2019-05-17T01:08:42.122Z,9.24
2019-05-17T01:11:08.911Z,9.15
2019-05-17T01:13:37.497Z,9.06
2019-05-17T01:16:02.386Z,9.04
2019-05-17T01:18:29.122Z,9.03
2019-05-17T01:20:56.760Z,9.02
2019-05-17T01:23:22.587Z,8.96
2019-05-17T01:25:49.326Z,8.95
2019-05-17T01:28:16.443Z,9.02
2019-05-17T01:30:42.898Z,9.02
2019-05-17T01:33:09.626Z,8.91
2019-05-17T01:35:37.387Z,8.92
2019-05-17T01:38:03.250Z,8.91
2019-05-17T01:40:29.990Z,8.86
2019-05-17T01:42:58.137Z,8.80
2019-05-17T01:45:23.446Z,8.80
2019-05-17T01:47:50.166Z,8.76
2019-05-17T01:50:17.468Z,8.77
2019-05-17T01:52:45.865Z,8.76
2019-05-17T01:55:10.498Z,8.67
2019-05-17T01:57:37.343Z,8.66
2019-05-17T02:00:06.370Z,8.75
2019-05-17T02:02:36.459Z,8.72
2019-05-17T02:05:00.762Z,8.69
2019-05-17T02:07:27.526Z,8.74
2019-05-17T02:09:56.700Z,8.70
2019-05-17T02:12:20.982Z,8.72
2019-05-17T02:14:47.734Z,8.57
2019-05-17T02:17:14.460Z,8.58
2019-05-17T02:19:41.187Z,8.74
2019-05-17T02:22:08.034Z,8.51
2019-05-17T02:24:36.894Z,8.75
2019-05-17T02:27:01.505Z,8.46
2019-05-17T02:29:28.244Z,8.37
2019-05-17T02:31:55.019Z,8.27
2019-05-17T02:34:23.242Z,8.31
2019-05-17T02:36:48.494Z,8.18
2019-05-17T02:39:15.221Z,8.21
2019-05-17T02:41:42.971Z,8.22
2019-05-17T02:44:08.697Z,8.21
2019-05-17T02:46:35.481Z,8.22
2019-05-17T02:49:02.988Z,8.42
2019-05-17T02:51:28.931Z,8.54
2019-05-17T02:53:55.668Z,8.22
2019-05-17T02:56:23.219Z,8.39
2019-05-17T02:58:49.160Z,8.28
2019-05-17T03:01:15.931Z,8.56
2019-05-17T03:03:43.625Z,8.54
2019-05-17T03:06:09.395Z,8.22
2019-05-17T03:08:36.123Z,8.38
2019-05-17T03:11:03.562Z,8.13
2019-05-17T03:13:32.794Z,8.19
2019-05-17T03:15:56.652Z,8.12
2019-05-17T03:18:23.373Z,8.10
2019-05-17T03:20:52.526Z,8.24
2019-05-17T03:23:16.949Z,8.06
2019-05-17T03:25:44.100Z,7.91
2019-05-17T03:28:13.202Z,8.02
2019-05-17T03:30:38.142Z,7.94
2019-05-17T03:33:07.654Z,7.94
2019-05-17T03:35:37.755Z,7.85
2019-05-17T03:37:58.419Z,7.93
2019-05-17T03:40:56.520Z,7.99
2019-05-17T03:42:53.870Z,7.99
2019-05-17T03:45:18.730Z,8.04
2019-05-17T03:47:45.665Z,7.96
2019-05-17T03:50:13.456Z,7.90
2019-05-17T03:52:39.195Z,7.89
2019-05-17T03:55:05.913Z,8.07
2019-05-17T03:57:32.653Z,8.08
2019-05-17T04:00:03.498Z,7.91
2019-05-17T04:02:26.318Z,7.91
2019-05-17T04:04:53.294Z,7.95
2019-05-17T04:07:23.366Z,7.88
2019-05-17T04:09:46.589Z,7.92
2019-05-17T04:12:13.736Z,7.90
2019-05-17T04:14:42.827Z,8.02
2019-05-17T04:17:06.865Z,8.14
2019-05-17T04:19:33.848Z,8.26
2019-05-17T04:22:03.487Z,8.33
2019-05-17T04:24:27.036Z,8.41
2019-05-17T04:26:53.767Z,8.36
2019-05-17T04:29:22.673Z,8.45
2019-05-17T04:31:47.491Z,8.53
2019-05-17T04:34:14.765Z,8.67
2019-05-17T04:36:43.155Z,8.70
2019-05-17T04:39:08.251Z,8.77
2019-05-17T04:41:45.145Z,8.84
2019-05-17T04:44:02.709Z,8.88
2019-05-17T04:46:28.766Z,8.99
2019-05-17T04:48:55.501Z,9.25
2019-05-17T04:51:23.250Z,9.32
2019-05-17T04:53:52.725Z,9.45
2019-05-17T04:56:15.922Z,9.49
2019-05-17T04:58:43.060Z,9.49
2019-05-17T05:01:12.907Z,9.57
2019-05-17T05:03:36.139Z,9.63
2019-05-17T05:06:03.420Z,9.63
2019-05-17T05:08:32.771Z,9.63
2019-05-17T05:10:56.387Z,10.17
2019-05-17T05:13:23.132Z,10.22
2019-05-17T05:15:52.035Z,10.37
2019-05-17T05:18:16.592Z,10.29
2019-05-17T05:20:43.912Z,10.50
2019-05-17T05:23:12.130Z,10.44
2019-05-17T05:25:36.800Z,10.42
2019-05-17T05:28:03.522Z,10.48
2019-05-17T05:30:32.042Z,10.67
2019-05-17T05:32:57.027Z,10.85
2019-05-17T05:35:23.758Z,10.88
2019-05-17T05:37:52.489Z,10.93
2019-05-17T05:40:17.258Z,10.86
2019-05-17T05:42:43.990Z,11.10
2019-05-17T05:45:12.119Z,11.24
2019-05-17T05:47:37.462Z,11.33
2019-05-17T05:50:04.414Z,11.69
2019-05-17T05:52:32.440Z,11.61
2019-05-17T05:54:58.084Z,11.44
2019-05-17T05:57:24.818Z,11.53
2019-05-17T05:59:51.897Z,11.94
2019-05-17T06:02:18.267Z,11.77
2019-05-17T06:04:44.998Z,11.63
2019-05-17T06:07:12.865Z,12.04
2019-05-17T06:09:38.550Z,11.80
2019-05-17T06:12:05.342Z,12.06
2019-05-17T06:14:32.450Z,12.37
2019-05-17T06:16:58.913Z,12.03
2019-05-17T06:19:25.639Z,12.16
2019-05-17T06:21:52.381Z,12.33
2019-05-17T06:24:19.103Z,12.27
2019-05-17T06:26:45.837Z,12.32
2019-05-17T06:29:12.577Z,12.42
2019-05-17T06:31:39.409Z,12.49
2019-05-17T06:34:06.135Z,12.87
2019-05-17T06:36:33.028Z,13.18
2019-05-17T06:39:02.101Z,13.02
2019-05-17T06:41:26.337Z,12.92
2019-05-17T06:43:53.058Z,12.86
2019-05-17T06:46:21.972Z,12.84
2019-05-17T06:48:46.643Z,13.01
2019-05-17T06:51:13.369Z,13.03
2019-05-17T06:53:40.117Z,13.01
2019-05-17T06:56:06.846Z,12.90
2019-05-17T06:58:33.569Z,13.13
2019-05-17T07:01:00.333Z,13.37
2019-05-17T07:03:29.345Z,13.60
2019-05-17T07:05:54.258Z,13.59
2019-05-17T07:08:20.982Z,13.65
2019-05-17T07:10:50.110Z,13.47
2019-05-17T07:13:14.458Z,13.47
2019-05-17T07:15:47.298Z,13.65
2019-05-17T07:18:10.156Z,13.90
2019-05-17T07:20:34.643Z,14.54
2019-05-17T07:23:01.423Z,14.07
2019-05-17T07:25:30.221Z,14.06
2019-05-17T07:27:54.891Z,14.12
2019-05-17T07:30:21.615Z,14.11
2019-05-17T07:32:49.799Z,14.18
2019-05-17T07:35:15.074Z,14.10
2019-05-17T07:37:41.915Z,14.20
2019-05-17T07:40:10.876Z,14.55
2019-05-17T07:42:35.370Z,14.43
2019-05-17T07:45:02.286Z,14.27
2019-05-17T07:47:29.441Z,14.47
2019-05-17T07:49:55.796Z,14.66
2019-05-17T07:52:22.538Z,14.60
2019-05-17T07:54:50.831Z,14.84
2019-05-17T07:57:16.010Z,15.04
2019-05-17T07:59:42.746Z,15.03
2019-05-17T08:02:10.645Z,15.15
2019-05-17T08:04:36.214Z,15.13
2019-05-17T08:07:02.933Z,15.10
2019-05-17T08:09:30.167Z,15.07
2019-05-17T08:11:56.395Z,15.49
2019-05-17T08:14:29.958Z,15.75
2019-05-17T08:16:50.229Z,15.23
2019-05-17T08:19:16.599Z,15.43
2019-05-17T08:21:43.318Z,15.86
2019-05-17T08:24:10.398Z,16.11
2019-05-17T08:26:36.778Z,16.01
2019-05-17T08:29:03.526Z,16.40
2019-05-17T08:31:30.231Z,16.27
2019-05-17T08:33:56.982Z,16.96
2019-05-17T08:36:23.700Z,17.01
2019-05-17T08:38:50.442Z,16.53
2019-05-17T08:41:17.165Z,16.26
2019-05-17T08:43:47.010Z,16.34
2019-05-17T08:46:10.724Z,16.71
2019-05-17T08:48:37.390Z,16.69
2019-05-17T08:51:04.110Z,16.71
2019-05-17T08:53:30.857Z,17.03
2019-05-17T08:55:57.592Z,16.67
2019-05-17T08:58:24.294Z,16.95
2019-05-17T09:00:51.041Z,16.60
2019-05-17T09:03:19.589Z,16.92
2019-05-17T09:05:44.531Z,17.15
2019-05-17T09:08:11.247Z,17.77
2019-05-17T09:10:40.473Z,18.64
2019-05-17T09:13:04.734Z,18.27
2019-05-17T09:15:31.473Z,18.09
2019-05-17T09:18:00.183Z,17.99
2019-05-17T09:20:24.946Z,18.50
2019-05-17T09:22:51.679Z,18.89
2019-05-17T09:25:21.444Z,18.27
2019-05-17T09:27:45.338Z,18.02
2019-05-17T09:30:12.066Z,18.30
2019-05-17T09:32:40.528Z,18.32
2019-05-17T09:35:05.555Z,18.84
2019-05-17T09:37:32.283Z,18.93
2019-05-17T09:39:59.858Z,18.27
2019-05-17T09:42:25.754Z,18.44
2019-05-17T09:44:52.503Z,18.87
2019-05-17T09:47:20.606Z,19.02
2019-05-17T09:49:45.997Z,18.35
2019-05-17T09:52:12.722Z,18.15
2019-05-17T09:54:44.975Z,18.97
2019-05-17T09:57:06.193Z,18.95
2019-05-17T09:59:32.925Z,18.56
2019-05-17T10:02:00.111Z,19.02
2019-05-17T10:04:26.383Z,18.92
2019-05-17T10:06:53.134Z,19.67
2019-05-17T10:09:19.866Z,19.36
2019-05-17T10:11:46.633Z,19.20
2019-05-17T10:14:24.588Z,19.21
2019-05-17T10:16:40.199Z,19.18
2019-05-17T10:19:09.445Z,20.31
2019-05-17T10:21:33.683Z,20.36
2019-05-17T10:24:00.463Z,19.50
2019-05-17T10:26:30.193Z,19.77
2019-05-17T10:28:53.967Z,19.36
2019-05-17T10:31:20.729Z,19.75
2019-05-17T10:33:49.364Z,20.25
2019-05-17T10:36:14.222Z,19.63
2019-05-17T10:38:40.953Z,19.33
2019-05-17T10:41:09.965Z,19.41
2019-05-17T10:43:34.446Z,19.55
2019-05-17T10:46:01.191Z,20.04
2019-05-17T10:48:29.996Z,20.89
2019-05-17T10:50:54.677Z,21.21
2019-05-17T10:53:21.403Z,21.37
2019-05-17T10:55:49.812Z,19.92
2019-05-17T10:58:14.890Z,20.80
2019-05-17T11:00:41.734Z,21.49
2019-05-17T11:03:09.803Z,21.16
2019-05-17T11:05:35.097Z,20.44
2019-05-17T11:08:01.838Z,19.86
2019-05-17T11:10:28.606Z,19.71
2019-05-17T11:12:55.343Z,20.28
2019-05-17T11:15:22.086Z,20.39
2019-05-17T11:17:48.797Z,20.60
2019-05-17T11:20:15.572Z,21.08
2019-05-17T11:22:42.293Z,21.09
2019-05-17T11:25:09.036Z,20.51
2019-05-17T11:27:35.788Z,20.06
2019-05-17T11:30:02.538Z,19.81
2019-05-17T11:32:29.312Z,19.62
2019-05-17T11:34:56.030Z,19.74
2019-05-17T11:37:22.835Z,19.58
2019-05-17T11:39:49.602Z,19.91
2019-05-17T11:42:17.299Z,20.23
2019-05-17T11:44:44.034Z,20.23
2019-05-17T11:47:10.867Z,20.59
2019-05-17T11:49:37.604Z,20.97
2019-05-17T11:52:04.349Z,21.57
2019-05-17T11:54:32.270Z,21.91
2019-05-17T11:56:59.044Z,21.68
2019-05-17T11:59:25.745Z,22.39
2019-05-17T12:01:52.614Z,22.28
2019-05-17T12:04:19.346Z,22.08
2019-05-17T12:06:46.086Z,22.01
2019-05-17T12:09:12.831Z,22.45
2019-05-17T12:11:39.658Z,22.44
2019-05-17T12:14:06.407Z,21.51
2019-05-17T12:16:33.134Z,21.94
2019-05-17T12:18:59.954Z,21.37
2019-05-17T12:21:26.704Z,20.82
2019-05-17T12:23:53.450Z,20.55
2019-05-17T12:26:20.191Z,20.64
2019-05-17T12:28:47.059Z,21.01
2019-05-17T12:31:13.814Z,21.15
2019-05-17T12:33:40.595Z,20.91
2019-05-17T12:36:07.589Z,21.41
2019-05-17T12:38:34.310Z,21.84
2019-05-17T12:41:01.055Z,22.37
2019-05-17T12:43:27.875Z,22.45
2019-05-17T12:46:00.799Z,22.35
2019-05-17T12:48:21.400Z,21.70
2019-05-17T12:50:48.207Z,21.38
2019-05-17T12:53:14.975Z,21.07
2019-05-17T12:55:41.798Z,20.98
2019-05-17T12:58:08.581Z,20.74
2019-05-17T13:00:35.386Z,20.90
2019-05-17T13:03:02.255Z,20.84
2019-05-17T13:05:28.982Z,20.91
2019-05-17T13:07:55.797Z,21.41
2019-05-17T13:10:22.636Z,21.36
2019-05-17T13:12:49.394Z,21.20
2019-05-17T13:15:16.135Z,21.08
2019-05-17T13:17:42.979Z,21.34
2019-05-17T13:20:09.713Z,21.50
2019-05-17T13:22:36.486Z,21.74
2019-05-17T13:25:04.376Z,21.54
2019-05-17T13:27:31.126Z,21.62
2019-05-17T13:29:57.882Z,21.61
2019-05-17T13:32:24.642Z,21.97
2019-05-17T13:34:51.474Z,21.80
2019-05-17T13:37:18.214Z,22.04
2019-05-17T13:39:44.958Z,22.19
2019-05-17T13:42:11.802Z,22.52
2019-05-17T13:44:38.527Z,22.60
2019-05-17T13:47:05.275Z,22.38
2019-05-17T13:49:32.019Z,22.15
2019-05-17T13:51:58.876Z,22.10
2019-05-17T13:54:25.607Z,22.13
2019-05-17T13:56:52.348Z,22.84
2019-05-17T13:59:19.082Z,23.04
2019-05-17T14:01:45.959Z,22.50
2019-05-17T14:04:12.771Z,22.63
2019-05-17T14:06:39.539Z,22.44
2019-05-17T14:09:06.296Z,22.65
2019-05-17T14:11:33.050Z,22.38
2019-05-17T14:13:59.854Z,22.10
2019-05-17T14:16:26.575Z,22.21
2019-05-17T14:18:53.313Z,22.50
2019-05-17T14:21:20.185Z,22.96
2019-05-17T14:23:47.083Z,22.61
2019-05-17T14:26:13.833Z,22.39
2019-05-17T14:28:40.579Z,22.91
2019-05-17T14:31:07.431Z,22.57
2019-05-17T14:33:34.153Z,22.60
2019-05-17T14:36:00.928Z,23.02
2019-05-17T14:38:27.743Z,23.27
2019-05-17T14:41:09.901Z,22.54
2019-05-17T14:43:21.334Z,22.70
2019-05-17T14:45:48.076Z,22.88
2019-05-17T14:48:14.818Z,23.54
2019-05-17T14:50:41.564Z,23.52
2019-05-17T14:53:08.409Z,23.71
2019-05-17T14:55:35.139Z,23.53
2019-05-17T14:58:02.006Z,23.81
2019-05-17T15:00:28.748Z,23.47
2019-05-17T15:02:55.482Z,23.69
2019-05-17T15:05:22.200Z,23.98
2019-05-17T15:07:48.938Z,23.33
2019-05-17T15:10:15.769Z,23.71
2019-05-17T15:12:42.627Z,23.60
2019-05-17T15:15:09.364Z,23.42
2019-05-17T15:17:36.896Z,23.29
2019-05-17T15:20:03.667Z,22.79
2019-05-17T15:22:30.510Z,22.88
2019-05-17T15:24:57.386Z,23.10
2019-05-17T15:27:24.196Z,23.03
2019-05-17T15:29:51.031Z,23.06
2019-05-17T15:32:17.758Z,22.92
2019-05-17T15:34:44.514Z,23.36
2019-05-17T15:37:11.307Z,22.95
2019-05-17T15:39:38.022Z,22.68
2019-05-17T15:42:04.734Z,23.20
2019-05-17T15:44:31.477Z,23.48
2019-05-17T15:46:58.225Z,23.50
2019-05-17T15:49:24.968Z,23.62
2019-05-17T15:51:51.690Z,23.93
2019-05-17T15:54:18.430Z,24.01
2019-05-17T15:56:45.165Z,23.94
2019-05-17T15:59:11.908Z,23.97
2019-05-17T16:01:38.852Z,23.99
2019-05-17T16:04:05.361Z,23.84
2019-05-17T16:06:32.083Z,23.99
2019-05-17T16:08:58.871Z,24.10
2019-05-17T16:11:25.590Z,23.97
2019-05-17T16:13:52.318Z,24.27
2019-05-17T16:16:19.053Z,24.52
2019-05-17T16:18:45.782Z,24.71
2019-05-17T16:21:12.519Z,24.64
2019-05-17T16:23:39.358Z,24.45
2019-05-17T16:26:06.088Z,24.36
2019-05-17T16:28:32.840Z,24.27
2019-05-17T16:30:59.609Z,24.31
2019-05-17T16:33:26.339Z,24.08
2019-05-17T16:35:53.066Z,24.48
2019-05-17T16:38:19.807Z,24.45
2019-05-17T16:40:46.528Z,24.36
2019-05-17T16:43:18.100Z,24.16
2019-05-17T16:45:40.077Z,23.69
2019-05-17T16:48:06.830Z,23.45
2019-05-17T16:50:33.574Z,23.10
2019-05-17T16:53:05.913Z,23.95
2019-05-17T16:55:27.139Z,24.39
2019-05-17T16:57:53.858Z,24.36
2019-05-17T17:00:24.401Z,24.08
2019-05-17T17:02:51.123Z,23.74
2019-05-17T17:05:17.906Z,23.72
2019-05-17T17:07:44.623Z,24.07
2019-05-17T17:10:11.364Z,23.65
2019-05-17T17:12:38.111Z,22.67
2019-05-17T17:15:04.875Z,23.64
2019-05-17T17:17:31.593Z,24.72
2019-05-17T17:19:58.355Z,25.09
2019-05-17T17:22:25.084Z,24.63
2019-05-17T17:24:51.814Z,25.55
2019-05-17T17:27:18.532Z,25.19
2019-05-17T17:29:45.269Z,24.91
2019-05-17T17:32:21.253Z,24.56
2019-05-17T17:34:38.731Z,23.82
2019-05-17T17:37:05.471Z,24.10
2019-05-17T17:39:32.190Z,24.19
2019-05-17T17:41:58.933Z,23.81
2019-05-17T17:44:25.825Z,23.39
2019-05-17T17:46:52.550Z,23.09
2019-05-17T17:49:19.290Z,23.15
2019-05-17T17:51:46.007Z,23.37
2019-05-17T17:54:12.742Z,23.18
2019-05-17T17:56:39.454Z,23.64
2019-05-17T17:59:06.231Z,23.87
2019-05-17T18:01:32.930Z,24.58
2019-05-17T18:03:59.659Z,25.04
2019-05-17T18:06:26.418Z,24.75
2019-05-17T18:08:53.154Z,23.98
2019-05-17T18:11:19.889Z,23.91
2019-05-17T18:13:46.605Z,23.27
2019-05-17T18:16:13.361Z,23.21
2019-05-17T18:18:40.102Z,23.01
2019-05-17T18:21:06.829Z,22.74
2019-05-17T18:23:33.575Z,22.44
2019-05-17T18:26:00.298Z,22.32
2019-05-17T18:28:27.051Z,22.20
2019-05-17T18:30:53.781Z,21.98
2019-05-17T18:33:20.522Z,22.00
2019-05-17T18:35:47.254Z,22.12
2019-05-17T18:38:14.010Z,21.80
2019-05-17T18:40:40.762Z,21.73
2019-05-17T18:43:07.477Z,21.41
2019-05-17T18:45:34.218Z,21.09
2019-05-17T18:48:00.958Z,21.60
2019-05-17T18:50:27.982Z,20.94
2019-05-17T18:52:55.001Z,20.87
2019-05-17T18:55:21.487Z,20.69
2019-05-17T18:57:48.233Z,20.72
2019-05-17T19:00:14.987Z,20.58
2019-05-17T19:02:41.721Z,20.50
2019-05-17T19:05:08.488Z,20.42
2019-05-17T19:07:35.207Z,20.44
2019-05-17T19:10:02.005Z,20.22
2019-05-17T19:12:28.726Z,20.10
2019-05-17T19:14:55.478Z,19.84
2019-05-17T19:17:22.187Z,20.19
2019-05-17T19:19:48.948Z,19.87
2019-05-17T19:22:15.666Z,20.28
2019-05-17T19:24:42.431Z,19.99
2019-05-17T19:27:09.166Z,19.75
2019-05-17T19:29:35.910Z,19.49
2019-05-17T19:32:02.640Z,20.14
2019-05-17T19:34:29.370Z,20.13
2019-05-17T19:36:56.090Z,19.29
2019-05-17T19:39:22.826Z,19.23
2019-05-17T19:41:49.586Z,18.98
2019-05-17T19:44:16.481Z,18.83
2019-05-17T19:46:43.222Z,19.30
2019-05-17T19:49:09.968Z,18.70
2019-05-17T19:51:36.708Z,18.33
2019-05-17T19:54:03.436Z,18.15
2019-05-17T19:56:30.182Z,18.05
2019-05-17T19:58:56.921Z,18.03
2019-05-17T20:01:23.686Z,17.86
2019-05-17T20:03:50.422Z,17.74
2019-05-17T20:06:17.187Z,17.72
2019-05-17T20:08:43.906Z,17.59
2019-05-17T20:11:10.684Z,17.56
2019-05-17T20:13:37.402Z,17.50
2019-05-17T20:16:04.166Z,17.87
2019-05-17T20:18:30.927Z,17.57
2019-05-17T20:20:57.694Z,17.53
2019-05-17T20:23:24.418Z,17.42
2019-05-17T20:25:51.168Z,17.35
2019-05-17T20:28:17.887Z,17.39
2019-05-17T20:30:44.666Z,17.27
2019-05-17T20:33:11.390Z,17.28
2019-05-17T20:35:38.130Z,17.19
2019-05-17T20:38:04.854Z,17.14
2019-05-17T20:40:31.602Z,17.05
2019-05-17T20:42:58.330Z,17.00
2019-05-17T20:45:33.318Z,16.86
2019-05-17T20:47:51.806Z,16.66
2019-05-17T20:50:18.538Z,16.57
2019-05-17T20:52:45.267Z,16.71
2019-05-17T20:55:12.018Z,16.66
2019-05-17T20:57:38.742Z,16.67
2019-05-17T21:00:05.620Z,16.51
2019-05-17T21:02:32.346Z,16.82
2019-05-17T21:04:59.086Z,16.94
2019-05-17T21:07:25.815Z,16.59
2019-05-17T21:09:52.542Z,16.70
2019-05-17T21:12:19.282Z,17.09
2019-05-17T21:14:46.001Z,16.89
2019-05-17T21:17:12.721Z,17.14
2019-05-17T21:19:39.445Z,16.90
2019-05-17T21:22:06.191Z,16.75
2019-05-17T21:24:32.939Z,16.62
2019-05-17T21:26:59.734Z,16.59
2019-05-17T21:29:26.433Z,16.81
2019-05-17T21:31:53.179Z,16.61
2019-05-17T21:34:19.910Z,16.61
2019-05-17T21:36:46.658Z,16.44
2019-05-17T21:39:13.397Z,16.55
2019-05-17T21:41:40.150Z,16.54
2019-05-17T21:44:06.878Z,16.48
2019-05-17T21:46:33.625Z,16.31
2019-05-17T21:49:00.350Z,16.29
2019-05-17T21:51:27.222Z,16.18
2019-05-17T21:53:53.975Z,16.17
2019-05-17T21:56:20.730Z,16.41
2019-05-17T21:58:47.448Z,16.48
2019-05-17T22:01:15.822Z,15.88
2019-05-17T22:03:42.538Z,15.80
2019-05-17T22:06:09.295Z,15.67
2019-05-17T22:08:36.044Z,15.59
2019-05-17T22:11:02.766Z,15.68
2019-05-17T22:13:29.599Z,16.20
2019-05-17T22:15:56.334Z,15.59
2019-05-17T22:18:23.078Z,15.55
2019-05-17T22:20:49.817Z,15.57
2019-05-17T22:23:16.562Z,15.31
2019-05-17T22:25:43.295Z,15.04
2019-05-17T22:28:10.031Z,15.70
2019-05-17T22:30:36.766Z,15.47
2019-05-17T22:33:03.522Z,15.22
2019-05-17T22:35:30.246Z,15.06
2019-05-17T22:37:57.010Z,14.96
2019-05-17T22:40:23.740Z,14.64
2019-05-17T22:42:50.487Z,14.63
2019-05-17T22:45:17.211Z,14.41
2019-05-17T22:47:44.012Z,14.30
2019-05-17T22:50:10.699Z,14.13
2019-05-17T22:52:37.442Z,14.06
2019-05-17T22:55:04.218Z,13.77
2019-05-17T22:57:30.954Z,13.75
2019-05-17T22:59:57.753Z,14.09
2019-05-17T23:02:24.503Z,13.16
2019-05-17T23:04:51.226Z,13.00
2019-05-17T23:07:17.981Z,12.62
2019-05-17T23:09:44.698Z,12.75
2019-05-17T23:12:11.442Z,12.69
2019-05-17T23:14:38.182Z,12.68
2019-05-17T23:17:04.925Z,12.57
2019-05-17T23:19:31.650Z,12.78
2019-05-17T23:21:58.386Z,12.70
2019-05-17T23:24:25.174Z,12.68
2019-05-17T23:26:51.921Z,12.65
2019-05-17T23:29:18.645Z,13.01
2019-05-17T23:31:45.421Z,12.66
2019-05-17T23:34:12.149Z,12.67
2019-05-17T23:36:38.874Z,12.84
2019-05-17T23:39:05.994Z,13.21
2019-05-17T23:41:32.715Z,12.97
2019-05-17T23:43:59.457Z,12.88
2019-05-17T23:46:26.185Z,12.79
2019-05-17T23:48:52.926Z,12.75
2019-05-17T23:51:19.645Z,12.80
2019-05-17T23:53:46.403Z,12.95
2019-05-17T23:56:13.173Z,12.94
2019-05-17T23:58:39.927Z,12.86
